sensor_id;sensor_type;location;lat;lon;timestamp;pressure;altitude;pressure_sealevel;temperature;humidity
20077;BME280;12348;42.710;23.378;2023-02-23T00:00:31;95004.16;;;4.82;100.00
20077;BME280;12348;42.710;23.378;2023-02-23T00:02:59;95004.16;;;4.82;100.00
20077;BME280;12348;42.710;23.378;2023-02-23T00:05:28;95014.47;;;4.74;100.00
20077;BME280;12348;42.710;23.378;2023-02-23T00:07:56;95011.38;;;4.87;100.00
20077;BME280;12348;42.710;23.378;2023-02-23T00:10:23;95012.38;;;4.81;100.00
20077;BME280;12348;42.710;23.378;2023-02-23T00:12:55;95006.25;;;4.80;100.00
20077;BME280;12348;42.710;23.378;2023-02-23T00:15:22;95025.66;;;4.71;100.00
20077;BME280;12348;42.710;23.378;2023-02-23T00:17:52;95020.06;;;4.72;100.00
20077;BME280;12348;42.710;23.378;2023-02-23T00:20:20;95021.44;;;4.75;100.00
20077;BME280;12348;42.710;23.378;2023-02-23T00:22:52;95021.88;;;4.67;100.00
20077;BME280;12348;42.710;23.378;2023-02-23T00:25:20;95025.00;;;4.58;100.00
20077;BME280;12348;42.710;23.378;2023-02-23T00:27:47;95015.44;;;4.62;100.00
20077;BME280;12348;42.710;23.378;2023-02-23T00:30:15;95013.84;;;4.61;100.00
20077;BME280;12348;42.710;23.378;2023-02-23T00:32:43;95020.38;;;4.76;100.00
20077;BME280;12348;42.710;23.378;2023-02-23T00:35:11;95019.34;;;4.82;100.00
20077;BME280;12348;42.710;23.378;2023-02-23T00:37:43;95019.84;;;4.79;100.00
20077;BME280;12348;42.710;23.378;2023-02-23T00:40:12;95021.47;;;4.85;100.00
20077;BME280;12348;42.710;23.378;2023-02-23T00:42:41;95021.72;;;4.78;100.00
20077;BME280;12348;42.710;23.378;2023-02-23T00:45:09;95016.09;;;4.75;100.00
20077;BME280;12348;42.710;23.378;2023-02-23T00:47:37;95019.78;;;4.69;100.00
20077;BME280;12348;42.710;23.378;2023-02-23T00:50:05;95017.53;;;4.55;100.00
20077;BME280;12348;42.710;23.378;2023-02-23T00:52:38;95015.25;;;4.69;100.00
20077;BME280;12348;42.710;23.378;2023-02-23T00:55:07;95015.53;;;4.73;100.00
20077;BME280;12348;42.710;23.378;2023-02-23T00:57:34;95020.34;;;4.71;100.00
20077;BME280;12348;42.710;23.378;2023-02-23T01:00:01;95010.66;;;4.59;100.00
20077;BME280;12348;42.710;23.378;2023-02-23T01:02:37;95017.50;;;4.50;100.00
20077;BME280;12348;42.710;23.378;2023-02-23T01:05:04;95009.38;;;4.35;100.00
20077;BME280;12348;42.710;23.378;2023-02-23T01:07:31;95013.47;;;4.16;100.00
20077;BME280;12348;42.710;23.378;2023-02-23T01:10:00;95012.28;;;4.06;100.00
20077;BME280;12348;42.710;23.378;2023-02-23T01:12:26;95015.22;;;4.05;100.00
20077;BME280;12348;42.710;23.378;2023-02-23T01:14:53;95021.69;;;4.14;100.00
20077;BME280;12348;42.710;23.378;2023-02-23T01:17:20;95017.00;;;3.99;100.00
20077;BME280;12348;42.710;23.378;2023-02-23T01:19:47;95017.41;;;3.86;100.00
20077;BME280;12348;42.710;23.378;2023-02-23T01:22:14;95017.25;;;3.71;100.00
20077;BME280;12348;42.710;23.378;2023-02-23T01:24:40;95012.53;;;3.56;100.00
20077;BME280;12348;42.710;23.378;2023-02-23T01:27:08;95011.13;;;3.48;100.00
20077;BME280;12348;42.710;23.378;2023-02-23T01:29:35;95013.22;;;3.46;100.00
20077;BME280;12348;42.710;23.378;2023-02-23T01:32:02;95011.31;;;3.42;100.00
20077;BME280;12348;42.710;23.378;2023-02-23T01:34:30;95010.31;;;3.48;100.00
20077;BME280;12348;42.710;23.378;2023-02-23T01:36:57;95010.81;;;3.67;100.00
20077;BME280;12348;42.710;23.378;2023-02-23T01:39:24;95012.94;;;3.70;100.00
20077;BME280;12348;42.710;23.378;2023-02-23T01:41:50;95010.00;;;3.66;100.00
20077;BME280;12348;42.710;23.378;2023-02-23T01:47:24;95008.47;;;3.48;100.00
20077;BME280;12348;42.710;23.378;2023-02-23T01:49:51;95003.59;;;3.40;100.00
20077;BME280;12348;42.710;23.378;2023-02-23T01:52:18;95011.47;;;3.35;100.00
20077;BME280;12348;42.710;23.378;2023-02-23T01:54:47;95010.31;;;3.48;100.00
20077;BME280;12348;42.710;23.378;2023-02-23T01:57:17;95006.59;;;3.49;100.00
20077;BME280;12348;42.710;23.378;2023-02-23T01:59:47;95005.53;;;3.50;100.00
20077;BME280;12348;42.710;23.378;2023-02-23T02:02:16;95006.22;;;3.62;100.00
20077;BME280;12348;42.710;23.378;2023-02-23T02:04:46;95001.00;;;3.72;100.00
20077;BME280;12348;42.710;23.378;2023-02-23T02:07:19;95007.22;;;3.78;100.00
20077;BME280;12348;42.710;23.378;2023-02-23T02:09:48;95001.31;;;3.76;100.00
20077;BME280;12348;42.710;23.378;2023-02-23T02:12:49;95001.00;;;3.72;100.00
20077;BME280;12348;42.710;23.378;2023-02-23T02:15:19;94999.47;;;3.76;100.00
20077;BME280;12348;42.710;23.378;2023-02-23T02:17:58;94995.50;;;3.79;100.00
20077;BME280;12348;42.710;23.378;2023-02-23T02:21:06;94996.97;;;3.70;100.00
20077;BME280;12348;42.710;23.378;2023-02-23T02:24:12;94997.06;;;3.53;100.00
20077;BME280;12348;42.710;23.378;2023-02-23T02:26:56;95012.09;;;3.42;100.00
20077;BME280;12348;42.710;23.378;2023-02-23T02:30:11;94998.75;;;3.37;100.00
20077;BME280;12348;42.710;23.378;2023-02-23T02:33:02;95012.72;;;3.27;100.00
20077;BME280;12348;42.710;23.378;2023-02-23T02:38:40;95010.81;;;3.23;100.00
20077;BME280;12348;42.710;23.378;2023-02-23T02:41:18;95006.16;;;3.35;100.00
20077;BME280;12348;42.710;23.378;2023-02-23T02:43:53;95004.13;;;3.42;100.00
20077;BME280;12348;42.710;23.378;2023-02-23T02:46:25;95006.66;;;3.32;100.00
20077;BME280;12348;42.710;23.378;2023-02-23T02:48:59;95005.16;;;3.19;100.00
20077;BME280;12348;42.710;23.378;2023-02-23T02:51:34;95006.41;;;3.11;100.00
20077;BME280;12348;42.710;23.378;2023-02-23T02:54:13;95001.50;;;3.03;100.00
20077;BME280;12348;42.710;23.378;2023-02-23T02:56:45;94997.53;;;3.06;100.00
20077;BME280;12348;42.710;23.378;2023-02-23T02:59:16;94993.84;;;2.90;100.00
20077;BME280;12348;42.710;23.378;2023-02-23T03:02:01;95000.06;;;2.96;100.00
20077;BME280;12348;42.710;23.378;2023-02-23T03:04:47;94997.56;;;2.89;100.00
20077;BME280;12348;42.710;23.378;2023-02-23T03:07:37;95001.09;;;2.95;100.00
20077;BME280;12348;42.710;23.378;2023-02-23T03:10:32;95004.97;;;2.87;100.00
20077;BME280;12348;42.710;23.378;2023-02-23T03:13:27;95009.19;;;2.83;100.00
20077;BME280;12348;42.710;23.378;2023-02-23T03:16:21;95001.69;;;2.80;100.00
20077;BME280;12348;42.710;23.378;2023-02-23T03:19:13;95011.63;;;2.67;100.00
20077;BME280;12348;42.710;23.378;2023-02-23T03:22:06;95020.97;;;2.70;100.00
20077;BME280;12348;42.710;23.378;2023-02-23T03:24:59;95014.53;;;2.66;100.00
20077;BME280;12348;42.710;23.378;2023-02-23T03:27:50;95015.06;;;2.68;100.00
20077;BME280;12348;42.710;23.378;2023-02-23T03:30:41;95019.59;;;2.67;100.00
20077;BME280;12348;42.710;23.378;2023-02-23T03:33:36;95020.78;;;2.60;100.00
20077;BME280;12348;42.710;23.378;2023-02-23T03:36:25;95019.91;;;2.71;100.00
20077;BME280;12348;42.710;23.378;2023-02-23T03:39:16;95024.84;;;2.62;100.00
20077;BME280;12348;42.710;23.378;2023-02-23T03:42:06;95020.81;;;2.43;100.00
20077;BME280;12348;42.710;23.378;2023-02-23T03:44:55;95024.03;;;2.28;100.00
20077;BME280;12348;42.710;23.378;2023-02-23T03:47:41;95024.31;;;2.15;100.00
20077;BME280;12348;42.710;23.378;2023-02-23T03:50:31;95031.81;;;2.35;100.00
20077;BME280;12348;42.710;23.378;2023-02-23T03:53:22;95022.25;;;2.34;100.00
20077;BME280;12348;42.710;23.378;2023-02-23T03:56:08;95032.63;;;2.35;100.00
20077;BME280;12348;42.710;23.378;2023-02-23T03:58:58;95040.03;;;2.50;100.00
20077;BME280;12348;42.710;23.378;2023-02-23T04:01:47;95032.06;;;2.67;100.00
20077;BME280;12348;42.710;23.378;2023-02-23T04:04:34;95034.81;;;2.55;100.00
20077;BME280;12348;42.710;23.378;2023-02-23T04:07:20;95038.19;;;2.67;100.00
20077;BME280;12348;42.710;23.378;2023-02-23T04:10:05;95039.63;;;2.75;100.00
20077;BME280;12348;42.710;23.378;2023-02-23T04:12:56;95039.31;;;2.72;100.00
20077;BME280;12348;42.710;23.378;2023-02-23T04:15:44;95037.13;;;2.68;100.00
20077;BME280;12348;42.710;23.378;2023-02-23T04:18:16;95036.75;;;2.77;100.00
20077;BME280;12348;42.710;23.378;2023-02-23T04:20:43;95033.13;;;2.66;100.00
20077;BME280;12348;42.710;23.378;2023-02-23T04:23:10;95038.59;;;2.59;100.00
20077;BME280;12348;42.710;23.378;2023-02-23T04:25:37;95030.16;;;2.62;100.00
20077;BME280;12348;42.710;23.378;2023-02-23T04:28:04;95029.41;;;2.67;100.00
20077;BME280;12348;42.710;23.378;2023-02-23T04:30:31;95030.22;;;2.67;100.00
20077;BME280;12348;42.710;23.378;2023-02-23T04:32:57;95037.13;;;2.68;100.00
20077;BME280;12348;42.710;23.378;2023-02-23T04:35:27;95032.13;;;2.72;100.00
20077;BME280;12348;42.710;23.378;2023-02-23T04:37:56;95034.16;;;2.65;100.00
20077;BME280;12348;42.710;23.378;2023-02-23T04:40:22;95032.88;;;2.67;100.00
20077;BME280;12348;42.710;23.378;2023-02-23T04:42:49;95042.41;;;2.80;100.00
20077;BME280;12348;42.710;23.378;2023-02-23T04:45:18;95045.97;;;2.91;100.00
20077;BME280;12348;42.710;23.378;2023-02-23T04:47:45;95041.72;;;2.90;100.00
20077;BME280;12348;42.710;23.378;2023-02-23T04:50:12;95037.41;;;2.84;100.00
20077;BME280;12348;42.710;23.378;2023-02-23T04:52:41;95043.34;;;2.74;100.00
20077;BME280;12348;42.710;23.378;2023-02-23T04:55:14;95043.28;;;2.69;100.00
20077;BME280;12348;42.710;23.378;2023-02-23T04:57:41;95040.53;;;2.81;100.00
20077;BME280;12348;42.710;23.378;2023-02-23T05:00:09;95043.75;;;2.83;100.00
20077;BME280;12348;42.710;23.378;2023-02-23T05:02:36;95045.13;;;2.68;100.00
20077;BME280;12348;42.710;23.378;2023-02-23T05:05:04;95034.56;;;2.57;100.00
20077;BME280;12348;42.710;23.378;2023-02-23T05:07:31;95042.69;;;2.50;100.00
20077;BME280;12348;42.710;23.378;2023-02-23T05:10:00;95041.75;;;2.56;100.00
20077;BME280;12348;42.710;23.378;2023-02-23T05:12:26;95045.28;;;2.62;100.00
20077;BME280;12348;42.710;23.378;2023-02-23T05:14:53;95049.97;;;2.55;100.00
20077;BME280;12348;42.710;23.378;2023-02-23T05:17:20;95046.88;;;2.46;100.00
20077;BME280;12348;42.710;23.378;2023-02-23T05:19:47;95054.22;;;2.56;100.00
20077;BME280;12348;42.710;23.378;2023-02-23T05:22:13;95046.88;;;2.80;100.00
20077;BME280;12348;42.710;23.378;2023-02-23T05:24:40;95057.25;;;2.98;100.00
20077;BME280;12348;42.710;23.378;2023-02-23T05:27:10;95053.16;;;3.07;100.00
20077;BME280;12348;42.710;23.378;2023-02-23T05:29:38;95050.88;;;3.16;100.00
20077;BME280;12348;42.710;23.378;2023-02-23T05:32:06;95051.69;;;3.55;100.00
20077;BME280;12348;42.710;23.378;2023-02-23T05:34:33;95056.47;;;3.80;100.00
20077;BME280;12348;42.710;23.378;2023-02-23T05:37:01;95060.75;;;4.03;100.00
20077;BME280;12348;42.710;23.378;2023-02-23T05:39:28;95061.97;;;4.45;100.00
20077;BME280;12348;42.710;23.378;2023-02-23T05:41:54;95050.19;;;4.68;100.00
20077;BME280;12348;42.710;23.378;2023-02-23T05:44:23;95073.78;;;4.54;100.00
20077;BME280;12348;42.710;23.378;2023-02-23T05:46:49;95071.28;;;4.42;100.00
20077;BME280;12348;42.710;23.378;2023-02-23T05:49:16;95079.78;;;4.39;100.00
20077;BME280;12348;42.710;23.378;2023-02-23T05:51:43;95076.47;;;4.59;100.00
20077;BME280;12348;42.710;23.378;2023-02-23T05:54:10;95083.50;;;5.02;100.00
20077;BME280;12348;42.710;23.378;2023-02-23T05:56:37;95084.53;;;5.81;100.00
20077;BME280;12348;42.710;23.378;2023-02-23T05:59:04;95084.53;;;6.59;100.00
20077;BME280;12348;42.710;23.378;2023-02-23T06:01:33;95083.69;;;7.50;100.00
20077;BME280;12348;42.710;23.378;2023-02-23T06:03:59;95086.50;;;8.65;100.00
20077;BME280;12348;42.710;23.378;2023-02-23T06:06:26;95092.13;;;9.37;92.88
20077;BME280;12348;42.710;23.378;2023-02-23T06:08:53;95085.66;;;10.15;82.43
20077;BME280;12348;42.710;23.378;2023-02-23T06:11:20;95083.13;;;10.85;78.26
20077;BME280;12348;42.710;23.378;2023-02-23T06:13:47;95096.81;;;11.08;74.51
20077;BME280;12348;42.710;23.378;2023-02-23T06:16:14;95089.94;;;11.95;71.31
20077;BME280;12348;42.710;23.378;2023-02-23T06:18:42;95085.00;;;13.69;64.51
20077;BME280;12348;42.710;23.378;2023-02-23T06:21:09;95092.28;;;14.88;58.61
20077;BME280;12348;42.710;23.378;2023-02-23T06:23:36;95090.69;;;15.04;57.47
20077;BME280;12348;42.710;23.378;2023-02-23T06:26:03;95094.59;;;15.94;53.96
20077;BME280;12348;42.710;23.378;2023-02-23T06:28:30;95093.47;;;16.71;51.15
20077;BME280;12348;42.710;23.378;2023-02-23T06:30:57;95098.66;;;18.14;47.12
20077;BME280;12348;42.710;23.378;2023-02-23T06:33:24;95100.97;;;17.04;47.64
20077;BME280;12348;42.710;23.378;2023-02-23T06:35:52;95098.03;;;16.20;49.49
20077;BME280;12348;42.710;23.378;2023-02-23T06:38:20;95099.38;;;15.97;50.41
20077;BME280;12348;42.710;23.378;2023-02-23T06:40:48;95092.66;;;16.03;51.18
20077;BME280;12348;42.710;23.378;2023-02-23T06:43:15;95103.16;;;15.40;51.63
20077;BME280;12348;42.710;23.378;2023-02-23T06:45:41;95108.41;;;15.54;51.14
20077;BME280;12348;42.710;23.378;2023-02-23T06:48:08;95108.09;;;15.73;51.46
20077;BME280;12348;42.710;23.378;2023-02-23T06:50:35;95109.84;;;15.51;51.65
20077;BME280;12348;42.710;23.378;2023-02-23T06:53:03;95102.19;;;15.10;53.33
20077;BME280;12348;42.710;23.378;2023-02-23T06:55:30;95107.59;;;15.62;53.13
20077;BME280;12348;42.710;23.378;2023-02-23T06:57:57;95110.03;;;15.29;52.44
20077;BME280;12348;42.710;23.378;2023-02-23T07:00:24;95106.84;;;14.44;56.33
20077;BME280;12348;42.710;23.378;2023-02-23T07:02:51;95106.44;;;14.19;58.16
20077;BME280;12348;42.710;23.378;2023-02-23T07:05:18;95105.25;;;14.43;58.73
20077;BME280;12348;42.710;23.378;2023-02-23T07:07:45;95110.91;;;13.93;60.13
20077;BME280;12348;42.710;23.378;2023-02-23T07:10:13;95105.81;;;14.62;58.86
20077;BME280;12348;42.710;23.378;2023-02-23T07:12:40;95108.25;;;15.50;55.12
20077;BME280;12348;42.710;23.378;2023-02-23T07:15:08;95104.94;;;16.18;51.98
20077;BME280;12348;42.710;23.378;2023-02-23T07:17:35;95103.41;;;16.67;50.43
20077;BME280;12348;42.710;23.378;2023-02-23T07:20:02;95101.88;;;17.08;50.30
20077;BME280;12348;42.710;23.378;2023-02-23T07:22:28;95099.00;;;17.47;48.00
20077;BME280;12348;42.710;23.378;2023-02-23T07:24:55;95112.94;;;16.82;49.77
20077;BME280;12348;42.710;23.378;2023-02-23T07:27:24;95107.38;;;16.79;49.97
20077;BME280;12348;42.710;23.378;2023-02-23T07:29:52;95110.81;;;16.88;49.53
20077;BME280;12348;42.710;23.378;2023-02-23T07:32:19;95103.16;;;17.11;49.04
20077;BME280;12348;42.710;23.378;2023-02-23T07:34:46;95099.41;;;17.36;48.89
20077;BME280;12348;42.710;23.378;2023-02-23T07:37:13;95093.66;;;16.66;50.78
20077;BME280;12348;42.710;23.378;2023-02-23T07:39:41;95091.09;;;16.40;51.24
20077;BME280;12348;42.710;23.378;2023-02-23T07:42:08;95095.28;;;15.82;52.04
20077;BME280;12348;42.710;23.378;2023-02-23T07:44:36;95094.38;;;15.17;54.62
20077;BME280;12348;42.710;23.378;2023-02-23T07:47:03;95095.78;;;15.49;55.30
20077;BME280;12348;42.710;23.378;2023-02-23T07:49:30;95085.25;;;15.31;55.65
20077;BME280;12348;42.710;23.378;2023-02-23T07:51:58;95088.38;;;16.02;53.71
20077;BME280;12348;42.710;23.378;2023-02-23T07:54:25;95093.81;;;16.32;53.16
20077;BME280;12348;42.710;23.378;2023-02-23T07:56:51;95082.28;;;16.73;51.10
20077;BME280;12348;42.710;23.378;2023-02-23T07:59:18;95086.38;;;17.63;49.58
20077;BME280;12348;42.710;23.378;2023-02-23T08:01:46;95084.63;;;18.74;46.45
20077;BME280;12348;42.710;23.378;2023-02-23T08:04:13;95073.44;;;20.47;42.32
20077;BME280;12348;42.710;23.378;2023-02-23T08:06:40;95080.22;;;21.20;40.83
20077;BME280;12348;42.710;23.378;2023-02-23T08:09:07;95082.56;;;22.65;38.37
20077;BME280;12348;42.710;23.378;2023-02-23T08:11:35;95071.75;;;21.45;38.74
20077;BME280;12348;42.710;23.378;2023-02-23T08:14:01;95078.06;;;21.29;39.18
20077;BME280;12348;42.710;23.378;2023-02-23T08:16:30;95076.69;;;19.61;41.86
20077;BME280;12348;42.710;23.378;2023-02-23T08:18:59;95069.50;;;18.64;44.24
20077;BME280;12348;42.710;23.378;2023-02-23T08:21:27;95063.63;;;19.14;43.53
20077;BME280;12348;42.710;23.378;2023-02-23T08:23:55;95068.25;;;20.10;41.16
20077;BME280;12348;42.710;23.378;2023-02-23T08:26:22;95068.94;;;20.23;41.31
20077;BME280;12348;42.710;23.378;2023-02-23T08:28:49;95070.63;;;21.88;39.60
20077;BME280;12348;42.710;23.378;2023-02-23T08:31:16;95074.75;;;23.16;37.08
20077;BME280;12348;42.710;23.378;2023-02-23T08:33:46;95072.66;;;23.66;36.04
20077;BME280;12348;42.710;23.378;2023-02-23T08:36:14;95069.94;;;23.40;35.50
20077;BME280;12348;42.710;23.378;2023-02-23T08:38:41;95076.44;;;21.64;38.11
20077;BME280;12348;42.710;23.378;2023-02-23T08:41:07;95078.84;;;21.11;39.21
20077;BME280;12348;42.710;23.378;2023-02-23T08:43:34;95070.78;;;21.76;37.81
20077;BME280;12348;42.710;23.378;2023-02-23T08:46:03;95068.16;;;21.05;39.30
20077;BME280;12348;42.710;23.378;2023-02-23T08:48:30;95072.13;;;21.63;38.64
20077;BME280;12348;42.710;23.378;2023-02-23T08:50:57;95066.41;;;20.97;38.76
20077;BME280;12348;42.710;23.378;2023-02-23T08:53:26;95076.03;;;20.24;41.20
20077;BME280;12348;42.710;23.378;2023-02-23T08:55:56;95070.09;;;20.38;40.78
20077;BME280;12348;42.710;23.378;2023-02-23T08:58:23;95068.59;;;18.84;43.80
20077;BME280;12348;42.710;23.378;2023-02-23T09:00:50;95073.72;;;19.26;43.48
20077;BME280;12348;42.710;23.378;2023-02-23T09:03:17;95067.78;;;19.36;43.61
20077;BME280;12348;42.710;23.378;2023-02-23T09:05:44;95066.94;;;19.20;43.35
20077;BME280;12348;42.710;23.378;2023-02-23T09:08:13;95066.72;;;19.53;43.63
20077;BME280;12348;42.710;23.378;2023-02-23T09:10:41;95060.81;;;20.27;42.32
20077;BME280;12348;42.710;23.378;2023-02-23T09:13:09;95060.78;;;19.23;43.56
20077;BME280;12348;42.710;23.378;2023-02-23T09:15:36;95062.38;;;19.52;43.47
20077;BME280;12348;42.710;23.378;2023-02-23T09:18:04;95064.16;;;19.60;44.14
20077;BME280;12348;42.710;23.378;2023-02-23T09:20:32;95061.44;;;19.60;43.33
20077;BME280;12348;42.710;23.378;2023-02-23T09:22:59;95046.53;;;20.33;42.35
20077;BME280;12348;42.710;23.378;2023-02-23T09:25:26;95057.50;;;21.20;40.29
20077;BME280;12348;42.710;23.378;2023-02-23T09:27:55;95052.69;;;20.78;41.43
20077;BME280;12348;42.710;23.378;2023-02-23T09:30:25;95050.63;;;21.45;40.30
20077;BME280;12348;42.710;23.378;2023-02-23T09:32:53;95051.13;;;21.51;39.89
20077;BME280;12348;42.710;23.378;2023-02-23T09:35:21;95060.69;;;20.87;40.39
20077;BME280;12348;42.710;23.378;2023-02-23T09:37:51;95050.91;;;20.86;40.18
20077;BME280;12348;42.710;23.378;2023-02-23T09:40:22;95049.97;;;21.33;40.20
20077;BME280;12348;42.710;23.378;2023-02-23T09:42:58;95062.97;;;20.49;41.40
20077;BME280;12348;42.710;23.378;2023-02-23T09:45:32;95062.25;;;20.52;41.42
20077;BME280;12348;42.710;23.378;2023-02-23T09:48:09;95049.63;;;20.48;41.30
20077;BME280;12348;42.710;23.378;2023-02-23T09:50:38;95054.28;;;21.14;40.97
20077;BME280;12348;42.710;23.378;2023-02-23T09:53:11;95055.69;;;21.08;40.91
20077;BME280;12348;42.710;23.378;2023-02-23T09:55:42;95047.06;;;20.71;40.99
20077;BME280;12348;42.710;23.378;2023-02-23T09:58:18;95047.72;;;21.58;39.71
20077;BME280;12348;42.710;23.378;2023-02-23T10:00:52;95042.31;;;22.23;38.93
20077;BME280;12348;42.710;23.378;2023-02-23T10:03:25;95048.38;;;20.77;41.09
20077;BME280;12348;42.710;23.378;2023-02-23T10:05:58;95046.47;;;19.98;42.71
20077;BME280;12348;42.710;23.378;2023-02-23T10:08:42;95041.69;;;19.23;43.88
20077;BME280;12348;42.710;23.378;2023-02-23T10:11:22;95037.00;;;20.43;42.04
20077;BME280;12348;42.710;23.378;2023-02-23T10:13:57;95032.81;;;21.36;40.83
20077;BME280;12348;42.710;23.378;2023-02-23T10:16:35;95031.00;;;21.43;39.65
20077;BME280;12348;42.710;23.378;2023-02-23T10:19:10;95030.75;;;21.13;40.72
20077;BME280;12348;42.710;23.378;2023-02-23T10:21:40;95032.31;;;19.52;43.30
20077;BME280;12348;42.710;23.378;2023-02-23T10:24:11;95028.03;;;19.95;43.67
20077;BME280;12348;42.710;23.378;2023-02-23T10:26:42;95023.53;;;19.87;42.78
20077;BME280;12348;42.710;23.378;2023-02-23T10:29:20;95021.78;;;21.51;40.38
20077;BME280;12348;42.710;23.378;2023-02-23T10:31:48;95000.31;;;22.72;38.31
20077;BME280;12348;42.710;23.378;2023-02-23T10:34:17;95004.09;;;21.91;38.84
20077;BME280;12348;42.710;23.378;2023-02-23T10:36:49;95009.50;;;20.36;42.18
20077;BME280;12348;42.710;23.378;2023-02-23T10:39:17;95007.97;;;21.44;39.85
20077;BME280;12348;42.710;23.378;2023-02-23T10:41:44;95001.88;;;21.35;39.62
20077;BME280;12348;42.710;23.378;2023-02-23T10:44:17;94998.81;;;20.82;39.89
20077;BME280;12348;42.710;23.378;2023-02-23T10:46:48;95000.88;;;20.02;41.85
20077;BME280;12348;42.710;23.378;2023-02-23T10:49:19;94990.63;;;19.83;43.09
20077;BME280;12348;42.710;23.378;2023-02-23T10:51:48;94988.53;;;20.95;41.79
20077;BME280;12348;42.710;23.378;2023-02-23T10:54:40;94984.94;;;21.29;40.49
20077;BME280;12348;42.710;23.378;2023-02-23T10:57:10;94980.69;;;21.13;40.44
20077;BME280;12348;42.710;23.378;2023-02-23T11:02:41;94976.75;;;22.41;37.97
20077;BME280;12348;42.710;23.378;2023-02-23T11:05:27;94962.91;;;22.34;37.89
20077;BME280;12348;42.710;23.378;2023-02-23T11:08:13;94964.75;;;22.26;37.21
20077;BME280;12348;42.710;23.378;2023-02-23T11:10:54;94964.88;;;21.87;37.92
20077;BME280;12348;42.710;23.378;2023-02-23T11:13:22;94962.22;;;21.48;39.16
20077;BME280;12348;42.710;23.378;2023-02-23T11:15:58;94958.34;;;21.49;38.89
20077;BME280;12348;42.710;23.378;2023-02-23T11:18:26;94958.59;;;21.87;38.00
20077;BME280;12348;42.710;23.378;2023-02-23T11:20:54;94958.53;;;21.83;37.92
20077;BME280;12348;42.710;23.378;2023-02-23T11:23:22;94951.41;;;22.01;37.64
20077;BME280;12348;42.710;23.378;2023-02-23T11:25:57;94951.56;;;21.04;39.46
20077;BME280;12348;42.710;23.378;2023-02-23T11:28:28;94950.78;;;20.65;40.10
20077;BME280;12348;42.710;23.378;2023-02-23T11:31:00;94949.78;;;21.12;38.97
20077;BME280;12348;42.710;23.378;2023-02-23T11:33:29;94942.88;;;21.84;38.90
20077;BME280;12348;42.710;23.378;2023-02-23T11:36:13;94938.22;;;21.42;38.51
20077;BME280;12348;42.710;23.378;2023-02-23T11:38:40;94928.69;;;21.78;38.42
20077;BME280;12348;42.710;23.378;2023-02-23T11:41:18;94929.84;;;22.00;38.05
20077;BME280;12348;42.710;23.378;2023-02-23T11:43:47;94931.97;;;20.64;39.27
20077;BME280;12348;42.710;23.378;2023-02-23T11:46:17;94931.81;;;19.14;41.44
20077;BME280;12348;42.710;23.378;2023-02-23T11:48:49;94921.50;;;18.67;42.45
20077;BME280;12348;42.710;23.378;2023-02-23T11:51:25;94922.81;;;18.57;43.62
20077;BME280;12348;42.710;23.378;2023-02-23T11:53:53;94917.97;;;19.35;42.57
20077;BME280;12348;42.710;23.378;2023-02-23T11:56:22;94921.34;;;19.92;40.92
20077;BME280;12348;42.710;23.378;2023-02-23T11:58:52;94918.88;;;19.71;41.76
20077;BME280;12348;42.710;23.378;2023-02-23T12:01:33;94919.63;;;19.55;40.71
20077;BME280;12348;42.710;23.378;2023-02-23T12:04:01;94918.75;;;20.15;41.00
20077;BME280;12348;42.710;23.378;2023-02-23T12:06:30;94918.88;;;20.73;39.91
20077;BME280;12348;42.710;23.378;2023-02-23T12:09:03;94914.50;;;20.88;40.05
20077;BME280;12348;42.710;23.378;2023-02-23T12:11:36;94918.13;;;20.76;39.85
20077;BME280;12348;42.710;23.378;2023-02-23T12:14:09;94914.59;;;20.21;40.64
20077;BME280;12348;42.710;23.378;2023-02-23T12:16:42;94910.59;;;20.34;40.62
20077;BME280;12348;42.710;23.378;2023-02-23T12:19:22;94908.69;;;20.19;40.37
20077;BME280;12348;42.710;23.378;2023-02-23T12:21:57;94911.66;;;19.63;40.13
20077;BME280;12348;42.710;23.378;2023-02-23T12:24:34;94908.00;;;20.41;39.12
20077;BME280;12348;42.710;23.378;2023-02-23T12:27:09;94906.47;;;20.24;39.65
20077;BME280;12348;42.710;23.378;2023-02-23T12:29:43;94905.38;;;19.94;40.38
20077;BME280;12348;42.710;23.378;2023-02-23T12:32:17;94893.75;;;19.81;40.80
20077;BME280;12348;42.710;23.378;2023-02-23T12:34:48;94895.88;;;19.72;40.94
20077;BME280;12348;42.710;23.378;2023-02-23T12:37:27;94902.56;;;18.71;41.83
20077;BME280;12348;42.710;23.378;2023-02-23T12:39:57;94899.44;;;18.44;42.46
20077;BME280;12348;42.710;23.378;2023-02-23T12:42:37;94905.69;;;18.85;41.78
20077;BME280;12348;42.710;23.378;2023-02-23T12:45:09;94896.53;;;18.93;41.59
20077;BME280;12348;42.710;23.378;2023-02-23T12:47:43;94900.69;;;18.87;42.52
20077;BME280;12348;42.710;23.378;2023-02-23T12:50:20;94898.16;;;18.94;42.03
20077;BME280;12348;42.710;23.378;2023-02-23T12:52:52;94891.66;;;19.14;41.74
20077;BME280;12348;42.710;23.378;2023-02-23T12:55:27;94900.13;;;18.81;42.69
20077;BME280;12348;42.710;23.378;2023-02-23T12:58:00;94889.28;;;18.97;42.92
20077;BME280;12348;42.710;23.378;2023-02-23T13:00:37;94889.13;;;19.22;42.42
20077;BME280;12348;42.710;23.378;2023-02-23T13:06:11;94883.84;;;18.85;42.78
20077;BME280;12348;42.710;23.378;2023-02-23T13:08:54;94880.91;;;18.90;42.64
20077;BME280;12348;42.710;23.378;2023-02-23T13:11:41;94887.31;;;18.41;42.91
20077;BME280;12348;42.710;23.378;2023-02-23T13:14:14;94885.16;;;18.35;42.73
20077;BME280;12348;42.710;23.378;2023-02-23T13:16:48;94880.06;;;18.61;43.22
20077;BME280;12348;42.710;23.378;2023-02-23T13:19:21;94881.41;;;18.68;43.21
20077;BME280;12348;42.710;23.378;2023-02-23T13:21:54;94885.19;;;18.23;43.24
20077;BME280;12348;42.710;23.378;2023-02-23T13:24:25;94880.34;;;18.04;43.75
20077;BME280;12348;42.710;23.378;2023-02-23T13:26:58;94882.34;;;18.07;43.82